sensor_id;sensor_type;location;lat;lon;timestamp;temperature;humidity
3770;DHT22;1900;48.890;9.190;2022-09-21T00:01:22;15.10;54.50
3770;DHT22;1900;48.890;9.190;2022-09-21T00:03:55;15.00;54.40
3770;DHT22;1900;48.890;9.190;2022-09-21T00:06:23;15.00;54.50
3770;DHT22;1900;48.890;9.190;2022-09-21T00:08:50;15.00;54.50
3770;DHT22;1900;48.890;9.190;2022-09-21T00:11:22;15.00;54.60
3770;DHT22;1900;48.890;9.190;2022-09-21T00:13:54;15.00;54.60
3770;DHT22;1900;48.890;9.190;2022-09-21T00:16:20;14.90;54.50
3770;DHT22;1900;48.890;9.190;2022-09-21T00:18:46;14.90;54.50
3770;DHT22;1900;48.890;9.190;2022-09-21T00:21:15;14.90;54.50
3770;DHT22;1900;48.890;9.190;2022-09-21T00:23:41;14.90;54.60
3770;DHT22;1900;48.890;9.190;2022-09-21T00:26:13;14.90;55.10
3770;DHT22;1900;48.890;9.190;2022-09-21T00:28:39;14.90;54.50
3770;DHT22;1900;48.890;9.190;2022-09-21T00:31:08;14.80;54.30
3770;DHT22;1900;48.890;9.190;2022-09-21T00:33:35;14.80;54.90
3770;DHT22;1900;48.890;9.190;2022-09-21T00:36:03;14.70;54.20
3770;DHT22;1900;48.890;9.190;2022-09-21T00:38:29;14.70;54.30
3770;DHT22;1900;48.890;9.190;2022-09-21T00:40:55;14.70;54.30
3770;DHT22;1900;48.890;9.190;2022-09-21T00:43:21;14.70;54.40
3770;DHT22;1900;48.890;9.190;2022-09-21T00:45:47;14.70;54.40
3770;DHT22;1900;48.890;9.190;2022-09-21T00:48:14;14.70;54.40
3770;DHT22;1900;48.890;9.190;2022-09-21T00:50:47;14.60;54.30
3770;DHT22;1900;48.890;9.190;2022-09-21T00:53:14;14.60;54.40
3770;DHT22;1900;48.890;9.190;2022-09-21T00:55:43;14.60;54.40
3770;DHT22;1900;48.890;9.190;2022-09-21T00:58:15;14.60;54.40
3770;DHT22;1900;48.890;9.190;2022-09-21T01:00:43;14.60;54.40
3770;DHT22;1900;48.890;9.190;2022-09-21T01:03:09;14.60;54.40
3770;DHT22;1900;48.890;9.190;2022-09-21T01:05:36;14.50;54.30
3770;DHT22;1900;48.890;9.190;2022-09-21T01:08:05;14.50;54.30
3770;DHT22;1900;48.890;9.190;2022-09-21T01:13:50;14.50;54.40
3770;DHT22;1900;48.890;9.190;2022-09-21T01:30:28;14.30;54.30
3770;DHT22;1900;48.890;9.190;2022-09-21T01:33:17;14.30;54.30
3770;DHT22;1900;48.890;9.190;2022-09-21T01:35:49;14.30;54.40
3770;DHT22;1900;48.890;9.190;2022-09-21T01:38:22;14.30;54.30
3770;DHT22;1900;48.890;9.190;2022-09-21T01:40:56;14.30;54.30
3770;DHT22;1900;48.890;9.190;2022-09-21T01:43:27;14.20;54.20
3770;DHT22;1900;48.890;9.190;2022-09-21T01:45:55;14.20;54.20
3770;DHT22;1900;48.890;9.190;2022-09-21T01:48:23;14.20;54.80
3770;DHT22;1900;48.890;9.190;2022-09-21T01:50:53;14.20;54.30
3770;DHT22;1900;48.890;9.190;2022-09-21T01:53:32;14.20;54.30
3770;DHT22;1900;48.890;9.190;2022-09-21T01:56:12;14.20;54.40
3770;DHT22;1900;48.890;9.190;2022-09-21T02:01:18;14.10;54.30
3770;DHT22;1900;48.890;9.190;2022-09-21T02:04:12;14.10;54.30
3770;DHT22;1900;48.890;9.190;2022-09-21T02:06:41;14.10;54.40
3770;DHT22;1900;48.890;9.190;2022-09-21T02:09:08;14.10;54.30
3770;DHT22;1900;48.890;9.190;2022-09-21T02:11:35;14.10;54.30
3770;DHT22;1900;48.890;9.190;2022-09-21T02:14:03;14.10;54.40
3770;DHT22;1900;48.890;9.190;2022-09-21T02:16:40;14.10;54.40
3770;DHT22;1900;48.890;9.190;2022-09-21T02:19:20;14.10;54.40
3770;DHT22;1900;48.890;9.190;2022-09-21T02:22:08;14.10;54.40
3770;DHT22;1900;48.890;9.190;2022-09-21T02:24:41;14.10;54.40
3770;DHT22;1900;48.890;9.190;2022-09-21T02:29:52;14.00;54.20
3770;DHT22;1900;48.890;9.190;2022-09-21T02:32:36;14.00;54.20
3770;DHT22;1900;48.890;9.190;2022-09-21T02:40:24;13.90;54.60
3770;DHT22;1900;48.890;9.190;2022-09-21T02:43:00;13.90;54.10
3770;DHT22;1900;48.890;9.190;2022-09-21T02:45:31;13.80;54.00
3770;DHT22;1900;48.890;9.190;2022-09-21T02:48:04;13.80;54.00
3770;DHT22;1900;48.890;9.190;2022-09-21T02:50:40;13.70;53.90
3770;DHT22;1900;48.890;9.190;2022-09-21T02:53:08;13.70;53.80
3770;DHT22;1900;48.890;9.190;2022-09-21T02:55:36;13.70;53.90
3770;DHT22;1900;48.890;9.190;2022-09-21T02:58:05;13.60;53.80
3770;DHT22;1900;48.890;9.190;2022-09-21T03:00:33;13.60;53.80
3770;DHT22;1900;48.890;9.190;2022-09-21T03:03:00;13.60;53.80
3770;DHT22;1900;48.890;9.190;2022-09-21T03:05:42;13.50;53.80
3770;DHT22;1900;48.890;9.190;2022-09-21T03:08:08;13.50;53.80
3770;DHT22;1900;48.890;9.190;2022-09-21T03:10:34;13.50;53.80
3770;DHT22;1900;48.890;9.190;2022-09-21T03:13:04;13.50;53.90
3770;DHT22;1900;48.890;9.190;2022-09-21T03:15:30;13.50;53.90
3770;DHT22;1900;48.890;9.190;2022-09-21T03:17:56;13.50;54.00
3770;DHT22;1900;48.890;9.190;2022-09-21T03:20:21;13.50;54.00
3770;DHT22;1900;48.890;9.190;2022-09-21T03:22:47;13.40;54.00
3770;DHT22;1900;48.890;9.190;2022-09-21T03:25:13;13.40;54.00
3770;DHT22;1900;48.890;9.190;2022-09-21T03:27:38;13.40;54.00
3770;DHT22;1900;48.890;9.190;2022-09-21T03:30:05;13.40;54.00
3770;DHT22;1900;48.890;9.190;2022-09-21T03:32:31;13.40;54.00
3770;DHT22;1900;48.890;9.190;2022-09-21T03:34:57;13.40;54.00
3770;DHT22;1900;48.890;9.190;2022-09-21T03:37:22;13.40;54.00
3770;DHT22;1900;48.890;9.190;2022-09-21T03:39:48;13.30;53.90
3770;DHT22;1900;48.890;9.190;2022-09-21T03:42:14;13.30;54.00
3770;DHT22;1900;48.890;9.190;2022-09-21T03:44:39;13.40;54.00
3770;DHT22;1900;48.890;9.190;2022-09-21T03:47:06;13.30;53.90
3770;DHT22;1900;48.890;9.190;2022-09-21T03:49:32;13.30;54.00
3770;DHT22;1900;48.890;9.190;2022-09-21T03:51:59;13.30;53.90
3770;DHT22;1900;48.890;9.190;2022-09-21T03:54:26;13.30;53.90
3770;DHT22;1900;48.890;9.190;2022-09-21T03:56:52;13.30;53.90
3770;DHT22;1900;48.890;9.190;2022-09-21T03:59:17;13.20;53.80
3770;DHT22;1900;48.890;9.190;2022-09-21T04:01:43;13.20;53.90
3770;DHT22;1900;48.890;9.190;2022-09-21T04:04:09;13.20;53.90
3770;DHT22;1900;48.890;9.190;2022-09-21T04:06:35;13.20;54.00
3770;DHT22;1900;48.890;9.190;2022-09-21T04:09:01;13.20;54.00
3770;DHT22;1900;48.890;9.190;2022-09-21T04:11:27;13.20;54.00
3770;DHT22;1900;48.890;9.190;2022-09-21T04:13:53;13.20;54.00
3770;DHT22;1900;48.890;9.190;2022-09-21T04:16:25;13.20;54.00
3770;DHT22;1900;48.890;9.190;2022-09-21T04:18:51;13.20;54.10
3770;DHT22;1900;48.890;9.190;2022-09-21T04:21:18;13.10;53.90
3770;DHT22;1900;48.890;9.190;2022-09-21T04:23:44;13.10;54.00
3770;DHT22;1900;48.890;9.190;2022-09-21T04:26:24;13.20;54.10
3770;DHT22;1900;48.890;9.190;2022-09-21T04:28:51;13.10;54.00
3770;DHT22;1900;48.890;9.190;2022-09-21T04:31:17;13.10;54.00
3770;DHT22;1900;48.890;9.190;2022-09-21T04:33:42;13.10;54.00
3770;DHT22;1900;48.890;9.190;2022-09-21T04:36:08;13.10;53.90
3770;DHT22;1900;48.890;9.190;2022-09-21T04:38:34;13.10;53.90
3770;DHT22;1900;48.890;9.190;2022-09-21T04:41:00;13.00;53.90
3770;DHT22;1900;48.890;9.190;2022-09-21T04:43:27;13.00;53.80
3770;DHT22;1900;48.890;9.190;2022-09-21T04:45:53;13.00;53.80
3770;DHT22;1900;48.890;9.190;2022-09-21T04:48:19;13.00;53.80
3770;DHT22;1900;48.890;9.190;2022-09-21T04:50:48;13.00;53.80
3770;DHT22;1900;48.890;9.190;2022-09-21T04:53:14;12.90;53.80
3770;DHT22;1900;48.890;9.190;2022-09-21T04:55:40;12.90;53.70
3770;DHT22;1900;48.890;9.190;2022-09-21T04:58:05;12.90;53.70
3770;DHT22;1900;48.890;9.190;2022-09-21T05:00:31;12.80;53.60
3770;DHT22;1900;48.890;9.190;2022-09-21T05:02:57;12.80;53.70
3770;DHT22;1900;48.890;9.190;2022-09-21T05:05:22;12.80;53.80
3770;DHT22;1900;48.890;9.190;2022-09-21T05:07:48;12.80;53.80
3770;DHT22;1900;48.890;9.190;2022-09-21T05:10:14;12.80;53.90
3770;DHT22;1900;48.890;9.190;2022-09-21T05:12:40;12.80;53.90
3770;DHT22;1900;48.890;9.190;2022-09-21T05:15:08;12.80;53.90
3770;DHT22;1900;48.890;9.190;2022-09-21T05:17:36;12.70;53.70
3770;DHT22;1900;48.890;9.190;2022-09-21T05:20:02;12.70;53.70
3770;DHT22;1900;48.890;9.190;2022-09-21T05:22:28;12.70;53.70
3770;DHT22;1900;48.890;9.190;2022-09-21T05:24:54;12.70;53.70
3770;DHT22;1900;48.890;9.190;2022-09-21T05:27:20;12.70;53.70
3770;DHT22;1900;48.890;9.190;2022-09-21T05:29:46;12.60;53.70
3770;DHT22;1900;48.890;9.190;2022-09-21T05:32:27;12.60;53.80
3770;DHT22;1900;48.890;9.190;2022-09-21T05:40:04;12.60;53.90
3770;DHT22;1900;48.890;9.190;2022-09-21T05:42:31;12.60;54.00
3770;DHT22;1900;48.890;9.190;2022-09-21T05:44:57;12.60;54.00
3770;DHT22;1900;48.890;9.190;2022-09-21T05:47:42;12.60;54.00
3770;DHT22;1900;48.890;9.190;2022-09-21T05:55:29;12.60;54.20
3770;DHT22;1900;48.890;9.190;2022-09-21T06:03:36;12.70;54.40
3770;DHT22;1900;48.890;9.190;2022-09-21T06:06:03;12.70;54.40
3770;DHT22;1900;48.890;9.190;2022-09-21T06:08:28;12.70;54.50
3770;DHT22;1900;48.890;9.190;2022-09-21T06:10:54;12.80;54.70
3770;DHT22;1900;48.890;9.190;2022-09-21T06:13:20;12.80;54.70
3770;DHT22;1900;48.890;9.190;2022-09-21T06:15:46;12.80;54.70
3770;DHT22;1900;48.890;9.190;2022-09-21T06:18:12;12.90;54.80
3770;DHT22;1900;48.890;9.190;2022-09-21T06:20:38;12.90;54.70
3770;DHT22;1900;48.890;9.190;2022-09-21T06:23:09;12.90;54.70
3770;DHT22;1900;48.890;9.190;2022-09-21T06:25:35;12.90;54.80
3770;DHT22;1900;48.890;9.190;2022-09-21T06:28:13;12.90;54.80
3770;DHT22;1900;48.890;9.190;2022-09-21T06:30:39;13.00;55.00
3770;DHT22;1900;48.890;9.190;2022-09-21T06:33:06;13.00;55.00
3770;DHT22;1900;48.890;9.190;2022-09-21T06:35:34;13.10;55.20
3770;DHT22;1900;48.890;9.190;2022-09-21T06:38:05;13.10;55.20
3770;DHT22;1900;48.890;9.190;2022-09-21T06:40:33;13.20;55.40
3770;DHT22;1900;48.890;9.190;2022-09-21T06:43:00;13.20;55.40
3770;DHT22;1900;48.890;9.190;2022-09-21T06:45:28;13.20;55.40
3770;DHT22;1900;48.890;9.190;2022-09-21T06:47:54;13.30;55.50
3770;DHT22;1900;48.890;9.190;2022-09-21T06:50:20;13.30;55.40
3770;DHT22;1900;48.890;9.190;2022-09-21T06:52:45;13.30;55.30
3770;DHT22;1900;48.890;9.190;2022-09-21T06:55:11;13.40;55.40
3770;DHT22;1900;48.890;9.190;2022-09-21T06:57:37;13.40;55.30
3770;DHT22;1900;48.890;9.190;2022-09-21T07:00:06;13.40;55.30
3770;DHT22;1900;48.890;9.190;2022-09-21T07:02:32;13.40;55.30
3770;DHT22;1900;48.890;9.190;2022-09-21T07:04:58;13.40;55.30
3770;DHT22;1900;48.890;9.190;2022-09-21T07:07:24;13.40;55.30
3770;DHT22;1900;48.890;9.190;2022-09-21T07:09:50;13.40;55.30
3770;DHT22;1900;48.890;9.190;2022-09-21T07:12:17;13.40;55.40
3770;DHT22;1900;48.890;9.190;2022-09-21T07:14:43;13.40;55.40
3770;DHT22;1900;48.890;9.190;2022-09-21T07:17:11;13.40;55.40
3770;DHT22;1900;48.890;9.190;2022-09-21T07:19:39;13.50;55.60
3770;DHT22;1900;48.890;9.190;2022-09-21T07:22:05;13.50;55.60
3770;DHT22;1900;48.890;9.190;2022-09-21T07:24:31;13.50;55.70
3770;DHT22;1900;48.890;9.190;2022-09-21T07:26:58;13.60;55.70
3770;DHT22;1900;48.890;9.190;2022-09-21T07:29:24;13.60;55.80
3770;DHT22;1900;48.890;9.190;2022-09-21T07:31:49;13.60;56.00
3770;DHT22;1900;48.890;9.190;2022-09-21T07:34:15;13.70;56.00
3770;DHT22;1900;48.890;9.190;2022-09-21T07:36:42;13.70;56.10
3770;DHT22;1900;48.890;9.190;2022-09-21T07:39:08;13.80;56.20
3770;DHT22;1900;48.890;9.190;2022-09-21T07:41:34;13.80;56.20
3770;DHT22;1900;48.890;9.190;2022-09-21T07:44:00;13.80;56.20
3770;DHT22;1900;48.890;9.190;2022-09-21T07:46:26;13.90;56.40
3770;DHT22;1900;48.890;9.190;2022-09-21T07:48:56;14.00;56.70
3770;DHT22;1900;48.890;9.190;2022-09-21T07:51:23;14.00;56.80
3770;DHT22;1900;48.890;9.190;2022-09-21T07:53:54;14.10;57.10
3770;DHT22;1900;48.890;9.190;2022-09-21T07:56:24;14.20;57.30
3770;DHT22;1900;48.890;9.190;2022-09-21T07:58:49;14.30;57.30
3770;DHT22;1900;48.890;9.190;2022-09-21T08:01:38;14.40;57.40
3770;DHT22;1900;48.890;9.190;2022-09-21T08:04:06;14.50;57.60
3770;DHT22;1900;48.890;9.190;2022-09-21T08:06:37;14.70;57.90
3770;DHT22;1900;48.890;9.190;2022-09-21T08:09:05;14.70;58.00
3770;DHT22;1900;48.890;9.190;2022-09-21T08:11:31;14.90;58.20
3770;DHT22;1900;48.890;9.190;2022-09-21T08:14:02;15.00;58.40
3770;DHT22;1900;48.890;9.190;2022-09-21T08:16:30;15.10;58.60
3770;DHT22;1900;48.890;9.190;2022-09-21T08:18:56;15.30;58.70
3770;DHT22;1900;48.890;9.190;2022-09-21T08:21:21;15.40;58.90
3770;DHT22;1900;48.890;9.190;2022-09-21T08:23:48;15.50;59.10
3770;DHT22;1900;48.890;9.190;2022-09-21T08:26:17;15.70;59.30
3770;DHT22;1900;48.890;9.190;2022-09-21T08:28:49;15.80;59.40
3770;DHT22;1900;48.890;9.190;2022-09-21T08:31:17;16.00;59.60
3770;DHT22;1900;48.890;9.190;2022-09-21T08:33:44;16.10;59.70
3770;DHT22;1900;48.890;9.190;2022-09-21T08:36:10;16.30;59.70
3770;DHT22;1900;48.890;9.190;2022-09-21T08:38:37;16.40;59.60
3770;DHT22;1900;48.890;9.190;2022-09-21T08:41:19;16.50;59.60
3770;DHT22;1900;48.890;9.190;2022-09-21T08:43:54;16.60;59.60
3770;DHT22;1900;48.890;9.190;2022-09-21T08:46:24;16.70;59.70
3770;DHT22;1900;48.890;9.190;2022-09-21T08:49:00;16.90;60.00
3770;DHT22;1900;48.890;9.190;2022-09-21T08:51:32;17.00;60.10
3770;DHT22;1900;48.890;9.190;2022-09-21T08:54:00;17.10;60.20
3770;DHT22;1900;48.890;9.190;2022-09-21T08:56:28;17.20;60.80
3770;DHT22;1900;48.890;9.190;2022-09-21T08:58:55;17.30;60.10
3770;DHT22;1900;48.890;9.190;2022-09-21T09:01:46;17.50;60.30
3770;DHT22;1900;48.890;9.190;2022-09-21T09:12:54;17.90;60.80
3770;DHT22;1900;48.890;9.190;2022-09-21T09:15:28;18.10;60.80
3770;DHT22;1900;48.890;9.190;2022-09-21T09:18:01;18.20;61.00
3770;DHT22;1900;48.890;9.190;2022-09-21T09:20:31;18.30;61.10
3770;DHT22;1900;48.890;9.190;2022-09-21T09:23:19;18.40;61.20
3770;DHT22;1900;48.890;9.190;2022-09-21T09:25:50;18.50;61.20
3770;DHT22;1900;48.890;9.190;2022-09-21T09:31:24;18.80;61.40
3770;DHT22;1900;48.890;9.190;2022-09-21T09:36:38;19.00;61.30
3770;DHT22;1900;48.890;9.190;2022-09-21T09:39:13;19.10;61.50
3770;DHT22;1900;48.890;9.190;2022-09-21T09:50:15;19.60;62.10
3770;DHT22;1900;48.890;9.190;2022-09-21T09:52:47;19.80;62.40
3770;DHT22;1900;48.890;9.190;2022-09-21T09:55:15;19.90;62.10
3770;DHT22;1900;48.890;9.190;2022-09-21T09:57:42;20.00;61.90
3770;DHT22;1900;48.890;9.190;2022-09-21T10:00:13;20.10;61.70
3770;DHT22;1900;48.890;9.190;2022-09-21T10:02:56;20.10;61.50
3770;DHT22;1900;48.890;9.190;2022-09-21T10:05:35;20.20;61.50
3770;DHT22;1900;48.890;9.190;2022-09-21T10:08:04;20.30;61.70
3770;DHT22;1900;48.890;9.190;2022-09-21T10:10:32;20.40;62.00
3770;DHT22;1900;48.890;9.190;2022-09-21T10:15:49;20.60;62.00
3770;DHT22;1900;48.890;9.190;2022-09-21T10:18:24;20.70;62.20
3770;DHT22;1900;48.890;9.190;2022-09-21T10:20:59;20.80;62.30
3770;DHT22;1900;48.890;9.190;2022-09-21T10:23:27;20.90;62.30
3770;DHT22;1900;48.890;9.190;2022-09-21T10:25:59;21.00;62.00
3770;DHT22;1900;48.890;9.190;2022-09-21T10:28:26;21.00;62.00
3770;DHT22;1900;48.890;9.190;2022-09-21T10:31:08;21.10;62.20
3770;DHT22;1900;48.890;9.190;2022-09-21T10:33:45;21.30;62.60
3770;DHT22;1900;48.890;9.190;2022-09-21T10:36:35;21.30;61.90
3770;DHT22;1900;48.890;9.190;2022-09-21T10:39:25;21.40;62.00
3770;DHT22;1900;48.890;9.190;2022-09-21T10:41:56;21.50;62.20
3770;DHT22;1900;48.890;9.190;2022-09-21T10:44:25;21.60;62.70
3770;DHT22;1900;48.890;9.190;2022-09-21T10:46:52;21.70;62.90
3770;DHT22;1900;48.890;9.190;2022-09-21T10:49:27;21.80;63.10
3770;DHT22;1900;48.890;9.190;2022-09-21T10:51:56;21.90;63.00
3770;DHT22;1900;48.890;9.190;2022-09-21T10:54:26;22.10;63.90
3770;DHT22;1900;48.890;9.190;2022-09-21T10:57:02;22.20;63.20
3770;DHT22;1900;48.890;9.190;2022-09-21T10:59:32;22.30;63.20
3770;DHT22;1900;48.890;9.190;2022-09-21T11:02:01;22.40;63.00
3770;DHT22;1900;48.890;9.190;2022-09-21T11:04:46;22.50;63.00
3770;DHT22;1900;48.890;9.190;2022-09-21T11:15:46;22.90;62.90
3770;DHT22;1900;48.890;9.190;2022-09-21T11:18:45;23.00;63.00
3770;DHT22;1900;48.890;9.190;2022-09-21T11:21:33;23.10;62.60
3770;DHT22;1900;48.890;9.190;2022-09-21T11:27:08;23.10;61.70
3770;DHT22;1900;48.890;9.190;2022-09-21T11:30:13;23.10;61.60
3770;DHT22;1900;48.890;9.190;2022-09-21T11:40:49;23.10;60.30
3770;DHT22;1900;48.890;9.190;2022-09-21T11:46:14;23.00;59.90
3770;DHT22;1900;48.890;9.190;2022-09-21T11:57:26;23.10;60.30
3770;DHT22;1900;48.890;9.190;2022-09-21T12:00:02;23.20;60.00
3770;DHT22;1900;48.890;9.190;2022-09-21T12:05:04;23.40;61.50
3770;DHT22;1900;48.890;9.190;2022-09-21T12:13:42;23.90;62.10
3770;DHT22;1900;48.890;9.190;2022-09-21T12:19:31;24.20;61.00
3770;DHT22;1900;48.890;9.190;2022-09-21T12:22:17;24.30;60.70
3770;DHT22;1900;48.890;9.190;2022-09-21T12:24:48;24.50;60.00
3770;DHT22;1900;48.890;9.190;2022-09-21T12:27:33;24.60;61.10
3770;DHT22;1900;48.890;9.190;2022-09-21T12:30:06;24.70;60.90
3770;DHT22;1900;48.890;9.190;2022-09-21T12:32:41;24.90;61.70
3770;DHT22;1900;48.890;9.190;2022-09-21T12:35:27;25.00;62.10
3770;DHT22;1900;48.890;9.190;2022-09-21T12:40:38;25.20;60.10
3770;DHT22;1900;48.890;9.190;2022-09-21T12:46:12;25.20;59.10
3770;DHT22;1900;48.890;9.190;2022-09-21T12:48:39;25.30;59.50
3770;DHT22;1900;48.890;9.190;2022-09-21T12:53:44;25.40;60.40
3770;DHT22;1900;48.890;9.190;2022-09-21T12:57:00;25.50;60.80
3770;DHT22;1900;48.890;9.190;2022-09-21T13:01:45;25.80;60.90
3770;DHT22;1900;48.890;9.190;2022-09-21T13:04:39;25.90;60.80
3770;DHT22;1900;48.890;9.190;2022-09-21T13:09:39;26.10;61.20
3770;DHT22;1900;48.890;9.190;2022-09-21T13:12:20;26.20;60.60
3770;DHT22;1900;48.890;9.190;2022-09-21T13:14:58;26.40;60.80
3770;DHT22;1900;48.890;9.190;2022-09-21T13:17:29;26.50;60.10
3770;DHT22;1900;48.890;9.190;2022-09-21T13:20:00;26.60;60.30
3770;DHT22;1900;48.890;9.190;2022-09-21T13:22:30;26.70;60.60
3770;DHT22;1900;48.890;9.190;2022-09-21T13:31:24;27.20;60.30
3770;DHT22;1900;48.890;9.190;2022-09-21T13:33:38;27.30;60.50
3770;DHT22;1900;48.890;9.190;2022-09-21T13:36:28;27.40;60.20
3770;DHT22;1900;48.890;9.190;2022-09-21T13:39:02;27.40;59.80
3770;DHT22;1900;48.890;9.190;2022-09-21T13:41:29;27.50;60.10
3770;DHT22;1900;48.890;9.190;2022-09-21T13:52:24;27.90;59.80
3770;DHT22;1900;48.890;9.190;2022-09-21T13:54:50;27.90;59.60
3770;DHT22;1900;48.890;9.190;2022-09-21T13:57:30;28.00;59.70
3770;DHT22;1900;48.890;9.190;2022-09-21T14:02:56;28.10;59.20
3770;DHT22;1900;48.890;9.190;2022-09-21T14:10:55;28.30;58.70
3770;DHT22;1900;48.890;9.190;2022-09-21T14:13:41;28.20;58.30
3770;DHT22;1900;48.890;9.190;2022-09-21T14:19:04;28.20;58.00
3770;DHT22;1900;48.890;9.190;2022-09-21T14:24:41;28.10;57.40
3770;DHT22;1900;48.890;9.190;2022-09-21T14:29:51;28.00;57.30
3770;DHT22;1900;48.890;9.190;2022-09-21T14:32:22;28.10;57.70
3770;DHT22;1900;48.890;9.190;2022-09-21T14:34:50;28.10;57.70
3770;DHT22;1900;48.890;9.190;2022-09-21T14:37:31;28.00;57.30
3770;DHT22;1900;48.890;9.190;2022-09-21T14:40:02;28.00;56.90
3770;DHT22;1900;48.890;9.190;2022-09-21T14:42:29;27.90;57.00
3770;DHT22;1900;48.890;9.190;2022-09-21T14:44:58;27.90;56.80
3770;DHT22;1900;48.890;9.190;2022-09-21T14:47:47;27.80;56.30
3770;DHT22;1900;48.890;9.190;2022-09-21T14:50:40;27.70;55.90
3770;DHT22;1900;48.890;9.190;2022-09-21T14:55:47;27.50;56.10
3770;DHT22;1900;48.890;9.190;2022-09-21T15:00:52;27.40;56.30
3770;DHT22;1900;48.890;9.190;2022-09-21T15:05:58;27.40;56.40
3770;DHT22;1900;48.890;9.190;2022-09-21T15:12:16;27.60;56.30
3770;DHT22;1900;48.890;9.190;2022-09-21T15:14:57;27.70;55.80
3770;DHT22;1900;48.890;9.190;2022-09-21T15:17:27;27.80;55.60
3770;DHT22;1900;48.890;9.190;2022-09-21T15:19:58;27.90;56.20
3770;DHT22;1900;48.890;9.190;2022-09-21T15:22:26;27.80;55.40
3770;DHT22;1900;48.890;9.190;2022-09-21T15:27:19;27.70;55.00
3770;DHT22;1900;48.890;9.190;2022-09-21T15:29:48;27.60;54.60
3770;DHT22;1900;48.890;9.190;2022-09-21T15:35:00;27.20;53.80
3770;DHT22;1900;48.890;9.190;2022-09-21T15:37:27;27.00;53.60
3770;DHT22;1900;48.890;9.190;2022-09-21T15:40:00;26.70;53.40
3770;DHT22;1900;48.890;9.190;2022-09-21T15:42:26;26.50;53.10
3770;DHT22;1900;48.890;9.190;2022-09-21T15:45:16;26.30;53.00
3770;DHT22;1900;48.890;9.190;2022-09-21T15:47:43;26.00;52.70
3770;DHT22;1900;48.890;9.190;2022-09-21T15:50:16;25.80;52.90
3770;DHT22;1900;48.890;9.190;2022-09-21T15:52:52;25.60;52.60
3770;DHT22;1900;48.890;9.190;2022-09-21T15:55:20;25.40;52.60
3770;DHT22;1900;48.890;9.190;2022-09-21T15:57:51;25.20;52.50
3770;DHT22;1900;48.890;9.190;2022-09-21T16:00:30;25.00;52.30
3770;DHT22;1900;48.890;9.190;2022-09-21T16:03:01;24.80;52.20
3770;DHT22;1900;48.890;9.190;2022-09-21T16:05:51;24.70;52.30
3770;DHT22;1900;48.890;9.190;2022-09-21T16:08:35;24.50;52.10
3770;DHT22;1900;48.890;9.190;2022-09-21T16:11:39;24.30;52.10
3770;DHT22;1900;48.890;9.190;2022-09-21T16:14:11;24.20;52.20
3770;DHT22;1900;48.890;9.190;2022-09-21T16:22:43;23.80;52.10
3770;DHT22;1900;48.890;9.190;2022-09-21T16:27:58;23.40;51.50
3770;DHT22;1900;48.890;9.190;2022-09-21T16:30:48;23.30;51.60
3770;DHT22;1900;48.890;9.190;2022-09-21T16:38:59;23.00;51.60
3770;DHT22;1900;48.890;9.190;2022-09-21T16:41:38;22.90;51.70
3770;DHT22;1900;48.890;9.190;2022-09-21T16:44:15;22.80;51.70
3770;DHT22;1900;48.890;9.190;2022-09-21T16:46:46;22.80;51.70
3770;DHT22;1900;48.890;9.190;2022-09-21T16:49:14;22.70;51.70
3770;DHT22;1900;48.890;9.190;2022-09-21T16:51:44;22.60;51.70
3770;DHT22;1900;48.890;9.190;2022-09-21T16:54:11;22.50;51.70
3770;DHT22;1900;48.890;9.190;2022-09-21T16:56:38;22.50;51.70
3770;DHT22;1900;48.890;9.190;2022-09-21T16:59:15;22.40;51.60
3770;DHT22;1900;48.890;9.190;2022-09-21T17:01:44;22.30;51.40
3770;DHT22;1900;48.890;9.190;2022-09-21T17:04:10;22.20;51.40
3770;DHT22;1900;48.890;9.190;2022-09-21T17:06:38;22.20;51.40
3770;DHT22;1900;48.890;9.190;2022-09-21T17:09:40;22.00;51.40
3770;DHT22;1900;48.890;9.190;2022-09-21T17:12:10;22.10;51.80
3770;DHT22;1900;48.890;9.190;2022-09-21T17:14:37;22.00;51.60
3770;DHT22;1900;48.890;9.190;2022-09-21T17:17:24;21.90;51.50
3770;DHT22;1900;48.890;9.190;2022-09-21T17:19:51;21.90;51.50
3770;DHT22;1900;48.890;9.190;2022-09-21T17:22:18;21.90;51.60
3770;DHT22;1900;48.890;9.190;2022-09-21T17:24:45;21.80;51.50
3770;DHT22;1900;48.890;9.190;2022-09-21T17:27:12;21.70;51.30
3770;DHT22;1900;48.890;9.190;2022-09-21T17:29:39;21.70;51.40
3770;DHT22;1900;48.890;9.190;2022-09-21T17:32:11;21.60;51.40
3770;DHT22;1900;48.890;9.190;2022-09-21T17:34:38;21.60;51.40
3770;DHT22;1900;48.890;9.190;2022-09-21T17:37:05;21.50;51.20
3770;DHT22;1900;48.890;9.190;2022-09-21T17:39:31;21.40;51.20
3770;DHT22;1900;48.890;9.190;2022-09-21T17:42:17;21.40;51.10
3770;DHT22;1900;48.890;9.190;2022-09-21T17:47:19;21.20;50.90
3770;DHT22;1900;48.890;9.190;2022-09-21T17:49:47;21.10;50.80
3770;DHT22;1900;48.890;9.190;2022-09-21T17:52:20;21.10;50.90
3770;DHT22;1900;48.890;9.190;2022-09-21T17:55:07;21.00;50.80
3770;DHT22;1900;48.890;9.190;2022-09-21T18:00:23;20.90;50.80
3770;DHT22;1900;48.890;9.190;2022-09-21T18:02:49;20.80;50.70
3770;DHT22;1900;48.890;9.190;2022-09-21T18:05:27;20.70;50.70
3770;DHT22;1900;48.890;9.190;2022-09-21T18:07:53;20.70;50.70
3770;DHT22;1900;48.890;9.190;2022-09-21T18:10:20;20.60;50.70
3770;DHT22;1900;48.890;9.190;2022-09-21T18:13:14;20.50;50.60
3770;DHT22;1900;48.890;9.190;2022-09-21T18:16:10;20.50;50.70
3770;DHT22;1900;48.890;9.190;2022-09-21T18:19:00;20.40;50.70
3770;DHT22;1900;48.890;9.190;2022-09-21T18:21:28;20.30;50.60
3770;DHT22;1900;48.890;9.190;2022-09-21T18:24:10;20.20;50.60
3770;DHT22;1900;48.890;9.190;2022-09-21T18:26:40;20.20;50.60
3770;DHT22;1900;48.890;9.190;2022-09-21T18:29:07;20.10;50.60
3770;DHT22;1900;48.890;9.190;2022-09-21T18:43:28;19.80;50.50
3770;DHT22;1900;48.890;9.190;2022-09-21T18:46:44;19.80;50.60
3770;DHT22;1900;48.890;9.190;2022-09-21T18:49:04;19.70;50.50
3770;DHT22;1900;48.890;9.190;2022-09-21T18:51:55;19.70;50.50
3770;DHT22;1900;48.890;9.190;2022-09-21T18:54:26;19.60;50.50
3770;DHT22;1900;48.890;9.190;2022-09-21T18:56:52;19.50;50.40
3770;DHT22;1900;48.890;9.190;2022-09-21T18:59:18;19.50;50.40
3770;DHT22;1900;48.890;9.190;2022-09-21T19:01:45;19.40;50.40
3770;DHT22;1900;48.890;9.190;2022-09-21T19:04:12;19.30;50.30
3770;DHT22;1900;48.890;9.190;2022-09-21T19:23:25;19.00;50.30
3770;DHT22;1900;48.890;9.190;2022-09-21T19:28:59;18.90;50.30
3770;DHT22;1900;48.890;9.190;2022-09-21T19:31:27;18.80;50.20
3770;DHT22;1900;48.890;9.190;2022-09-21T19:33:53;18.80;50.30
3770;DHT22;1900;48.890;9.190;2022-09-21T19:36:20;18.70;50.70
3770;DHT22;1900;48.890;9.190;2022-09-21T19:38:48;18.70;50.10
3770;DHT22;1900;48.890;9.190;2022-09-21T19:47:08;18.60;50.10
3770;DHT22;1900;48.890;9.190;2022-09-21T19:49:50;18.50;50.00
3770;DHT22;1900;48.890;9.190;2022-09-21T19:52:28;18.50;50.10
3770;DHT22;1900;48.890;9.190;2022-09-21T19:54:55;18.40;50.00
3770;DHT22;1900;48.890;9.190;2022-09-21T19:57:40;18.40;50.00
3770;DHT22;1900;48.890;9.190;2022-09-21T20:00:36;18.40;50.00
3770;DHT22;1900;48.890;9.190;2022-09-21T20:03:05;18.30;49.90
3770;DHT22;1900;48.890;9.190;2022-09-21T20:05:52;18.30;50.00
3770;DHT22;1900;48.890;9.190;2022-09-21T20:11:09;18.20;50.00
3770;DHT22;1900;48.890;9.190;2022-09-21T20:14:06;18.20;50.00
3770;DHT22;1900;48.890;9.190;2022-09-21T20:17:00;18.20;50.00
3770;DHT22;1900;48.890;9.190;2022-09-21T20:19:47;18.10;50.00
3770;DHT22;1900;48.890;9.190;2022-09-21T20:22:30;18.10;50.00
3770;DHT22;1900;48.890;9.190;2022-09-21T20:27:39;18.00;49.90